sensor_id;sensor_type;location;lat;lon;timestamp;pressure;altitude;pressure_sealevel;temperature;humidity
43683;BME280;29285;52.128;21.060;2023-02-17T00:01:50;100625.71;;;4.87;100.00
43683;BME280;29285;52.128;21.060;2023-02-17T00:06:51;100631.34;;;4.83;100.00
43683;BME280;29285;52.128;21.060;2023-02-17T00:11:52;100632.28;;;4.75;100.00
43683;BME280;29285;52.128;21.060;2023-02-17T00:16:53;100629.68;;;4.75;100.00
43683;BME280;29285;52.128;21.060;2023-02-17T00:21:55;100615.38;;;4.84;100.00
43683;BME280;29285;52.128;21.060;2023-02-17T00:26:56;100618.20;;;4.91;100.00
43683;BME280;29285;52.128;21.060;2023-02-17T00:31:57;100613.69;;;4.88;100.00
43683;BME280;29285;52.128;21.060;2023-02-17T00:36:58;100612.31;;;4.88;100.00
43683;BME280;29285;52.128;21.060;2023-02-17T00:41:59;100606.09;;;4.85;100.00
43683;BME280;29285;52.128;21.060;2023-02-17T00:47:00;100603.98;;;4.81;100.00
43683;BME280;29285;52.128;21.060;2023-02-17T00:52:01;100598.26;;;4.77;100.00
43683;BME280;29285;52.128;21.060;2023-02-17T00:57:02;100594.64;;;4.76;100.00
43683;BME280;29285;52.128;21.060;2023-02-17T01:02:03;100593.97;;;4.77;100.00
43683;BME280;29285;52.128;21.060;2023-02-17T01:07:04;100591.72;;;4.76;100.00
43683;BME280;29285;52.128;21.060;2023-02-17T01:12:05;100586.21;;;4.75;100.00
43683;BME280;29285;52.128;21.060;2023-02-17T01:17:06;100577.14;;;4.79;100.00
43683;BME280;29285;52.128;21.060;2023-02-17T01:22:08;100569.13;;;4.86;100.00
43683;BME280;29285;52.128;21.060;2023-02-17T01:27:09;100565.94;;;4.92;100.00
43683;BME280;29285;52.128;21.060;2023-02-17T01:32:10;100558.38;;;4.92;100.00
43683;BME280;29285;52.128;21.060;2023-02-17T01:37:11;100557.65;;;4.89;100.00
43683;BME280;29285;52.128;21.060;2023-02-17T01:42:15;100552.13;;;4.86;100.00
43683;BME280;29285;52.128;21.060;2023-02-17T01:47:16;100539.91;;;4.86;100.00
43683;BME280;29285;52.128;21.060;2023-02-17T01:52:19;100528.63;;;4.91;100.00
43683;BME280;29285;52.128;21.060;2023-02-17T01:57:23;100531.93;;;4.95;100.00
43683;BME280;29285;52.128;21.060;2023-02-17T02:02:26;100537.10;;;4.97;100.00
43683;BME280;29285;52.128;21.060;2023-02-17T02:07:31;100534.52;;;4.97;100.00
43683;BME280;29285;52.128;21.060;2023-02-17T02:12:34;100529.34;;;4.95;100.00
43683;BME280;29285;52.128;21.060;2023-02-17T02:17:40;100525.35;;;4.90;100.00
43683;BME280;29285;52.128;21.060;2023-02-17T02:22:59;100519.14;;;4.90;100.00
43683;BME280;29285;52.128;21.060;2023-02-17T02:33:25;100522.63;;;4.92;100.00
43683;BME280;29285;52.128;21.060;2023-02-17T02:38:38;100515.06;;;4.94;100.00
43683;BME280;29285;52.128;21.060;2023-02-17T02:43:40;100516.27;;;4.94;100.00
43683;BME280;29285;52.128;21.060;2023-02-17T02:48:42;100516.65;;;4.98;100.00
43683;BME280;29285;52.128;21.060;2023-02-17T02:53:48;100516.20;;;5.05;100.00
43683;BME280;29285;52.128;21.060;2023-02-17T03:09:04;100496.95;;;5.05;100.00
43683;BME280;29285;52.128;21.060;2023-02-17T03:14:11;100500.16;;;5.00;100.00
43683;BME280;29285;52.128;21.060;2023-02-17T03:19:13;100506.68;;;4.99;100.00
43683;BME280;29285;52.128;21.060;2023-02-17T03:24:15;100502.62;;;5.06;100.00
43683;BME280;29285;52.128;21.060;2023-02-17T03:29:17;100508.02;;;5.13;100.00
43683;BME280;29285;52.128;21.060;2023-02-17T03:34:17;100508.89;;;5.14;100.00
43683;BME280;29285;52.128;21.060;2023-02-17T03:39:18;100509.23;;;5.13;100.00
43683;BME280;29285;52.128;21.060;2023-02-17T03:44:20;100511.81;;;5.14;100.00
43683;BME280;29285;52.128;21.060;2023-02-17T03:49:21;100504.91;;;5.12;100.00
43683;BME280;29285;52.128;21.060;2023-02-17T03:54:22;100509.90;;;5.12;100.00
43683;BME280;29285;52.128;21.060;2023-02-17T03:59:23;100515.83;;;5.20;100.00
43683;BME280;29285;52.128;21.060;2023-02-17T04:04:25;100519.02;;;5.11;100.00
43683;BME280;29285;52.128;21.060;2023-02-17T04:09:26;100511.44;;;5.12;100.00
43683;BME280;29285;52.128;21.060;2023-02-17T04:14:27;100498.89;;;5.11;100.00
43683;BME280;29285;52.128;21.060;2023-02-17T04:19:28;100487.33;;;5.07;100.00
43683;BME280;29285;52.128;21.060;2023-02-17T04:24:29;100492.51;;;5.08;100.00
43683;BME280;29285;52.128;21.060;2023-02-17T04:29:31;100484.58;;;5.07;100.00
43683;BME280;29285;52.128;21.060;2023-02-17T04:34:32;100484.48;;;4.97;100.00
43683;BME280;29285;52.128;21.060;2023-02-17T04:39:33;100491.68;;;4.95;100.00
43683;BME280;29285;52.128;21.060;2023-02-17T04:44:35;100493.52;;;4.89;100.00
43683;BME280;29285;52.128;21.060;2023-02-17T04:49:35;100484.11;;;4.93;100.00
43683;BME280;29285;52.128;21.060;2023-02-17T04:54:36;100474.46;;;4.92;100.00
43683;BME280;29285;52.128;21.060;2023-02-17T04:59:37;100448.94;;;4.84;100.00
43683;BME280;29285;52.128;21.060;2023-02-17T05:04:38;100450.52;;;4.70;100.00
43683;BME280;29285;52.128;21.060;2023-02-17T05:09:39;100464.07;;;4.50;100.00
43683;BME280;29285;52.128;21.060;2023-02-17T05:14:40;100467.73;;;4.56;100.00
43683;BME280;29285;52.128;21.060;2023-02-17T05:19:41;100452.51;;;4.62;100.00
43683;BME280;29285;52.128;21.060;2023-02-17T05:24:42;100452.20;;;4.65;100.00
43683;BME280;29285;52.128;21.060;2023-02-17T05:29:43;100439.77;;;4.59;100.00
43683;BME280;29285;52.128;21.060;2023-02-17T05:34:44;100434.59;;;4.41;100.00
43683;BME280;29285;52.128;21.060;2023-02-17T05:39:45;100432.73;;;4.26;100.00
43683;BME280;29285;52.128;21.060;2023-02-17T05:44:46;100428.15;;;4.17;100.00
43683;BME280;29285;52.128;21.060;2023-02-17T05:49:47;100431.57;;;4.16;100.00
43683;BME280;29285;52.128;21.060;2023-02-17T05:54:48;100432.77;;;4.16;100.00
43683;BME280;29285;52.128;21.060;2023-02-17T05:59:49;100432.62;;;4.19;100.00
43683;BME280;29285;52.128;21.060;2023-02-17T06:04:49;100433.86;;;4.21;100.00
43683;BME280;29285;52.128;21.060;2023-02-17T06:09:51;100425.74;;;4.18;100.00
43683;BME280;29285;52.128;21.060;2023-02-17T06:14:52;100428.45;;;4.14;100.00
43683;BME280;29285;52.128;21.060;2023-02-17T06:19:53;100437.02;;;4.13;100.00
43683;BME280;29285;52.128;21.060;2023-02-17T06:24:53;100440.18;;;4.04;100.00
43683;BME280;29285;52.128;21.060;2023-02-17T06:29:55;100428.34;;;3.91;100.00
43683;BME280;29285;52.128;21.060;2023-02-17T06:34:55;100426.82;;;3.79;100.00
43683;BME280;29285;52.128;21.060;2023-02-17T06:39:56;100428.08;;;3.70;100.00
43683;BME280;29285;52.128;21.060;2023-02-17T06:44:57;100426.98;;;3.66;100.00
43683;BME280;29285;52.128;21.060;2023-02-17T06:50:00;100421.09;;;3.62;100.00
43683;BME280;29285;52.128;21.060;2023-02-17T06:55:01;100419.98;;;3.56;100.00
43683;BME280;29285;52.128;21.060;2023-02-17T07:00:03;100420.81;;;3.54;100.00
43683;BME280;29285;52.128;21.060;2023-02-17T07:05:05;100420.64;;;3.54;100.00
43683;BME280;29285;52.128;21.060;2023-02-17T07:10:06;100408.29;;;3.54;100.00
43683;BME280;29285;52.128;21.060;2023-02-17T07:15:07;100400.57;;;3.54;100.00
43683;BME280;29285;52.128;21.060;2023-02-17T07:20:09;100398.89;;;3.55;100.00
43683;BME280;29285;52.128;21.060;2023-02-17T07:25:10;100400.25;;;3.55;100.00
43683;BME280;29285;52.128;21.060;2023-02-17T07:30:11;100399.19;;;3.54;100.00
43683;BME280;29285;52.128;21.060;2023-02-17T07:35:12;100391.34;;;3.57;100.00
43683;BME280;29285;52.128;21.060;2023-02-17T07:40:13;100389.98;;;3.59;100.00
43683;BME280;29285;52.128;21.060;2023-02-17T07:45:14;100390.75;;;3.64;100.00
43683;BME280;29285;52.128;21.060;2023-02-17T07:50:15;100396.55;;;3.73;100.00
43683;BME280;29285;52.128;21.060;2023-02-17T07:55:16;100399.77;;;3.85;100.00
43683;BME280;29285;52.128;21.060;2023-02-17T08:00:17;100391.79;;;3.91;100.00
43683;BME280;29285;52.128;21.060;2023-02-17T08:05:18;100382.64;;;4.03;100.00
43683;BME280;29285;52.128;21.060;2023-02-17T08:10:19;100386.91;;;4.15;100.00
43683;BME280;29285;52.128;21.060;2023-02-17T08:15:39;100384.44;;;4.25;100.00
43683;BME280;29285;52.128;21.060;2023-02-17T08:20:40;100382.63;;;4.31;100.00
43683;BME280;29285;52.128;21.060;2023-02-17T08:25:42;100379.10;;;4.40;100.00
43683;BME280;29285;52.128;21.060;2023-02-17T08:30:43;100383.64;;;4.48;100.00
43683;BME280;29285;52.128;21.060;2023-02-17T08:35:44;100379.08;;;4.57;100.00
43683;BME280;29285;52.128;21.060;2023-02-17T08:40:45;100373.67;;;4.67;100.00
43683;BME280;29285;52.128;21.060;2023-02-17T08:45:46;100367.54;;;4.73;100.00
43683;BME280;29285;52.128;21.060;2023-02-17T08:50:48;100355.59;;;4.83;100.00
43683;BME280;29285;52.128;21.060;2023-02-17T08:55:49;100359.95;;;4.91;100.00
43683;BME280;29285;52.128;21.060;2023-02-17T09:00:50;100355.54;;;5.01;100.00
43683;BME280;29285;52.128;21.060;2023-02-17T09:05:55;100357.16;;;5.10;100.00
43683;BME280;29285;52.128;21.060;2023-02-17T09:10:57;100352.42;;;5.22;100.00
43683;BME280;29285;52.128;21.060;2023-02-17T09:15:58;100350.56;;;5.29;100.00
43683;BME280;29285;52.128;21.060;2023-02-17T09:21:04;100348.00;;;5.32;100.00
43683;BME280;29285;52.128;21.060;2023-02-17T09:26:06;100353.36;;;5.32;100.00
43683;BME280;29285;52.128;21.060;2023-02-17T09:31:08;100349.73;;;5.33;100.00
43683;BME280;29285;52.128;21.060;2023-02-17T09:36:11;100339.92;;;5.32;100.00
43683;BME280;29285;52.128;21.060;2023-02-17T09:46:16;100328.77;;;5.39;100.00
43683;BME280;29285;52.128;21.060;2023-02-17T09:51:20;100318.32;;;5.47;100.00
43683;BME280;29285;52.128;21.060;2023-02-17T09:56:25;100304.56;;;5.50;100.00
43683;BME280;29285;52.128;21.060;2023-02-17T10:01:29;100302.33;;;5.49;100.00
43683;BME280;29285;52.128;21.060;2023-02-17T10:06:36;100293.91;;;5.51;100.00
43683;BME280;29285;52.128;21.060;2023-02-17T10:11:40;100287.20;;;5.57;100.00
43683;BME280;29285;52.128;21.060;2023-02-17T10:17:03;100286.36;;;5.59;100.00
43683;BME280;29285;52.128;21.060;2023-02-17T10:22:10;100283.27;;;5.61;100.00
43683;BME280;29285;52.128;21.060;2023-02-17T10:32:36;100282.39;;;5.56;100.00
43683;BME280;29285;52.128;21.060;2023-02-17T10:42:44;100275.17;;;5.61;100.00
43683;BME280;29285;52.128;21.060;2023-02-17T10:47:45;100269.48;;;5.61;100.00
43683;BME280;29285;52.128;21.060;2023-02-17T10:52:47;100256.92;;;5.58;100.00
43683;BME280;29285;52.128;21.060;2023-02-17T10:58:00;100240.39;;;5.55;100.00
43683;BME280;29285;52.128;21.060;2023-02-17T11:03:05;100236.94;;;5.50;100.00
43683;BME280;29285;52.128;21.060;2023-02-17T11:08:13;100223.34;;;5.49;100.00
43683;BME280;29285;52.128;21.060;2023-02-17T11:13:32;100215.91;;;5.40;100.00
43683;BME280;29285;52.128;21.060;2023-02-17T11:18:35;100202.84;;;5.41;100.00
43683;BME280;29285;52.128;21.060;2023-02-17T11:23:46;100191.64;;;5.36;100.00
43683;BME280;29285;52.128;21.060;2023-02-17T11:28:47;100173.73;;;5.35;100.00
43683;BME280;29285;52.128;21.060;2023-02-17T11:33:49;100161.69;;;5.35;100.00
43683;BME280;29285;52.128;21.060;2023-02-17T11:38:50;100144.48;;;5.33;100.00
43683;BME280;29285;52.128;21.060;2023-02-17T11:43:52;100135.36;;;5.31;100.00
43683;BME280;29285;52.128;21.060;2023-02-17T11:54:02;100112.84;;;5.38;100.00
43683;BME280;29285;52.128;21.060;2023-02-17T11:59:27;100104.41;;;5.41;100.00
43683;BME280;29285;52.128;21.060;2023-02-17T12:04:31;100100.81;;;5.42;100.00
43683;BME280;29285;52.128;21.060;2023-02-17T12:09:43;100087.90;;;5.46;100.00
43683;BME280;29285;52.128;21.060;2023-02-17T12:35:23;100013.55;;;5.70;100.00
43683;BME280;29285;52.128;21.060;2023-02-17T12:45:38;99986.88;;;5.79;100.00
43683;BME280;29285;52.128;21.060;2023-02-17T12:50:49;99977.90;;;5.82;100.00
43683;BME280;29285;52.128;21.060;2023-02-17T12:55:54;99975.31;;;5.87;100.00
43683;BME280;29285;52.128;21.060;2023-02-17T13:01:04;99973.23;;;5.90;100.00
43683;BME280;29285;52.128;21.060;2023-02-17T13:11:28;99961.51;;;5.95;100.00
43683;BME280;29285;52.128;21.060;2023-02-17T13:16:30;99948.08;;;5.97;100.00
43683;BME280;29285;52.128;21.060;2023-02-17T13:21:51;99941.69;;;6.00;100.00
43683;BME280;29285;52.128;21.060;2023-02-17T13:26:53;99930.34;;;6.04;100.00
43683;BME280;29285;52.128;21.060;2023-02-17T13:31:58;99920.35;;;6.03;100.00
43683;BME280;29285;52.128;21.060;2023-02-17T13:37:00;99912.93;;;6.04;100.00
43683;BME280;29285;52.128;21.060;2023-02-17T13:42:02;99903.48;;;6.04;100.00
43683;BME280;29285;52.128;21.060;2023-02-17T13:47:24;99899.34;;;6.06;100.00
43683;BME280;29285;52.128;21.060;2023-02-17T13:52:28;99898.30;;;6.03;100.00
43683;BME280;29285;52.128;21.060;2023-02-17T13:57:30;99899.50;;;6.00;100.00
43683;BME280;29285;52.128;21.060;2023-02-17T14:02:31;99889.69;;;6.01;100.00
43683;BME280;29285;52.128;21.060;2023-02-17T14:07:33;99881.59;;;6.02;100.00
43683;BME280;29285;52.128;21.060;2023-02-17T14:12:34;99879.52;;;6.02;100.00
43683;BME280;29285;52.128;21.060;2023-02-17T14:17:35;99868.67;;;6.02;100.00
43683;BME280;29285;52.128;21.060;2023-02-17T14:22:36;99861.27;;;6.03;100.00
43683;BME280;29285;52.128;21.060;2023-02-17T14:32:42;99833.87;;;6.07;100.00
43683;BME280;29285;52.128;21.060;2023-02-17T14:37:43;99820.44;;;6.08;100.00
43683;BME280;29285;52.128;21.060;2023-02-17T14:42:44;99801.48;;;6.08;100.00
43683;BME280;29285;52.128;21.060;2023-02-17T14:47:45;99792.19;;;6.10;100.00
43683;BME280;29285;52.128;21.060;2023-02-17T14:52:47;99777.89;;;6.11;100.00
43683;BME280;29285;52.128;21.060;2023-02-17T14:57:49;99766.01;;;6.10;100.00
43683;BME280;29285;52.128;21.060;2023-02-17T15:02:50;99754.29;;;6.11;100.00
43683;BME280;29285;52.128;21.060;2023-02-17T15:07:52;99743.42;;;6.11;100.00
43683;BME280;29285;52.128;21.060;2023-02-17T15:12:53;99737.06;;;6.11;100.00
43683;BME280;29285;52.128;21.060;2023-02-17T15:17:54;99723.11;;;6.11;100.00
43683;BME280;29285;52.128;21.060;2023-02-17T15:22:55;99714.86;;;6.10;100.00
43683;BME280;29285;52.128;21.060;2023-02-17T15:27:57;99712.62;;;6.09;100.00
43683;BME280;29285;52.128;21.060;2023-02-17T15:32:58;99701.44;;;6.08;100.00
43683;BME280;29285;52.128;21.060;2023-02-17T15:38:01;99698.16;;;6.07;100.00
43683;BME280;29285;52.128;21.060;2023-02-17T15:43:02;99687.52;;;6.05;100.00
43683;BME280;29285;52.128;21.060;2023-02-17T15:48:05;99677.71;;;6.04;100.00
43683;BME280;29285;52.128;21.060;2023-02-17T15:53:07;99660.32;;;6.04;100.00
43683;BME280;29285;52.128;21.060;2023-02-17T15:58:12;99648.06;;;6.06;100.00
43683;BME280;29285;52.128;21.060;2023-02-17T16:03:17;99638.92;;;6.06;100.00
43683;BME280;29285;52.128;21.060;2023-02-17T16:08:18;99628.42;;;6.07;100.00
43683;BME280;29285;52.128;21.060;2023-02-17T16:13:19;99614.46;;;6.08;100.00
43683;BME280;29285;52.128;21.060;2023-02-17T16:18:22;99611.33;;;6.11;100.00
43683;BME280;29285;52.128;21.060;2023-02-17T16:23:23;99601.14;;;6.15;100.00
43683;BME280;29285;52.128;21.060;2023-02-17T16:28:24;99591.13;;;6.18;100.00
43683;BME280;29285;52.128;21.060;2023-02-17T16:33:25;99581.44;;;6.20;100.00
43683;BME280;29285;52.128;21.060;2023-02-17T16:38:26;99570.77;;;6.20;100.00
43683;BME280;29285;52.128;21.060;2023-02-17T16:43:29;99562.15;;;6.21;100.00
43683;BME280;29285;52.128;21.060;2023-02-17T16:48:31;99568.16;;;6.22;100.00
43683;BME280;29285;52.128;21.060;2023-02-17T16:53:32;99555.96;;;6.20;100.00
43683;BME280;29285;52.128;21.060;2023-02-17T16:58:33;99549.75;;;6.20;100.00
43683;BME280;29285;52.128;21.060;2023-02-17T17:03:35;99534.27;;;6.20;100.00
43683;BME280;29285;52.128;21.060;2023-02-17T17:08:36;99517.88;;;6.21;100.00
43683;BME280;29285;52.128;21.060;2023-02-17T17:13:37;99512.71;;;6.21;100.00
43683;BME280;29285;52.128;21.060;2023-02-17T17:18:38;99496.70;;;6.22;100.00
43683;BME280;29285;52.128;21.060;2023-02-17T17:23:39;99487.88;;;6.23;100.00
43683;BME280;29285;52.128;21.060;2023-02-17T18:10:31;99395.46;;;6.31;100.00
43683;BME280;29285;52.128;21.060;2023-02-17T18:15:32;99374.21;;;6.35;100.00
43683;BME280;29285;52.128;21.060;2023-02-17T18:20:33;99377.30;;;6.36;100.00
43683;BME280;29285;52.128;21.060;2023-02-17T18:25:34;99367.65;;;6.37;100.00
43683;BME280;29285;52.128;21.060;2023-02-17T18:30:36;99352.66;;;6.36;100.00
43683;BME280;29285;52.128;21.060;2023-02-17T18:35:36;99348.34;;;6.37;100.00
43683;BME280;29285;52.128;21.060;2023-02-17T18:40:38;99329.33;;;6.42;100.00
43683;BME280;29285;52.128;21.060;2023-02-17T18:45:39;99320.50;;;6.45;100.00
43683;BME280;29285;52.128;21.060;2023-02-17T18:50:40;99324.90;;;6.49;100.00
43683;BME280;29285;52.128;21.060;2023-02-17T18:55:41;99307.42;;;6.54;100.00
43683;BME280;29285;52.128;21.060;2023-02-17T19:00:42;99313.90;;;6.59;100.00
43683;BME280;29285;52.128;21.060;2023-02-17T19:05:43;99302.41;;;6.66;100.00
43683;BME280;29285;52.128;21.060;2023-02-17T19:10:44;99301.80;;;6.72;100.00
43683;BME280;29285;52.128;21.060;2023-02-17T19:15:45;99302.72;;;6.78;100.00
43683;BME280;29285;52.128;21.060;2023-02-17T19:20:46;99289.34;;;6.84;100.00
43683;BME280;29285;52.128;21.060;2023-02-17T19:25:46;99285.06;;;6.92;100.00
43683;BME280;29285;52.128;21.060;2023-02-17T19:30:47;99290.32;;;6.98;100.00
43683;BME280;29285;52.128;21.060;2023-02-17T19:35:50;99285.39;;;7.03;100.00
43683;BME280;29285;52.128;21.060;2023-02-17T19:40:51;99278.20;;;7.10;100.00
43683;BME280;29285;52.128;21.060;2023-02-17T19:45:52;99274.27;;;7.16;100.00
43683;BME280;29285;52.128;21.060;2023-02-17T19:51:00;99262.27;;;7.23;100.00
43683;BME280;29285;52.128;21.060;2023-02-17T20:01:15;99260.62;;;7.36;100.00
43683;BME280;29285;52.128;21.060;2023-02-17T20:06:18;99263.53;;;7.46;100.00
43683;BME280;29285;52.128;21.060;2023-02-17T20:11:20;99258.67;;;7.55;100.00
43683;BME280;29285;52.128;21.060;2023-02-17T20:16:21;99257.92;;;7.67;100.00
43683;BME280;29285;52.128;21.060;2023-02-17T20:21:24;99258.85;;;7.80;100.00
43683;BME280;29285;52.128;21.060;2023-02-17T20:26:28;99256.02;;;7.91;100.00
43683;BME280;29285;52.128;21.060;2023-02-17T20:31:30;99251.12;;;8.02;100.00
43683;BME280;29285;52.128;21.060;2023-02-17T20:36:30;99245.48;;;8.14;100.00
43683;BME280;29285;52.128;21.060;2023-02-17T20:41:31;99235.02;;;8.26;100.00
43683;BME280;29285;52.128;21.060;2023-02-17T20:46:32;99226.60;;;8.38;100.00
43683;BME280;29285;52.128;21.060;2023-02-17T20:51:33;99218.27;;;8.46;100.00
43683;BME280;29285;52.128;21.060;2023-02-17T20:56:38;99223.63;;;8.54;100.00
43683;BME280;29285;52.128;21.060;2023-02-17T21:01:40;99224.98;;;8.62;100.00
43683;BME280;29285;52.128;21.060;2023-02-17T21:06:41;99219.63;;;8.69;100.00
43683;BME280;29285;52.128;21.060;2023-02-17T21:11:43;99206.04;;;8.73;100.00
43683;BME280;29285;52.128;21.060;2023-02-17T21:16:44;99208.70;;;8.77;100.00
43683;BME280;29285;52.128;21.060;2023-02-17T21:21:45;99193.59;;;8.79;100.00
43683;BME280;29285;52.128;21.060;2023-02-17T21:26:46;99190.89;;;8.83;100.00
43683;BME280;29285;52.128;21.060;2023-02-17T21:31:47;99185.54;;;8.89;100.00
43683;BME280;29285;52.128;21.060;2023-02-17T21:36:48;99175.63;;;8.92;100.00
43683;BME280;29285;52.128;21.060;2023-02-17T21:41:48;99171.04;;;8.95;100.00
43683;BME280;29285;52.128;21.060;2023-02-17T21:46:50;99172.31;;;8.92;100.00
43683;BME280;29285;52.128;21.060;2023-02-17T21:51:53;99180.30;;;8.85;100.00
43683;BME280;29285;52.128;21.060;2023-02-17T21:56:54;99176.02;;;8.77;100.00
43683;BME280;29285;52.128;21.060;2023-02-17T22:01:55;99173.27;;;8.70;100.00
43683;BME280;29285;52.128;21.060;2023-02-17T22:06:56;99182.41;;;8.64;100.00
43683;BME280;29285;52.128;21.060;2023-02-17T22:11:57;99195.64;;;8.60;100.00
43683;BME280;29285;52.128;21.060;2023-02-17T22:16:57;99199.66;;;8.59;100.00
43683;BME280;29285;52.128;21.060;2023-02-17T22:21:58;99207.63;;;8.58;100.00
43683;BME280;29285;52.128;21.060;2023-02-17T22:26:59;99202.99;;;8.57;100.00
43683;BME280;29285;52.128;21.060;2023-02-17T22:32:01;99199.90;;;8.56;100.00
43683;BME280;29285;52.128;21.060;2023-02-17T22:37:02;99187.30;;;8.55;100.00
43683;BME280;29285;52.128;21.060;2023-02-17T22:42:03;99193.42;;;8.52;100.00
43683;BME280;29285;52.128;21.060;2023-02-17T22:47:04;99180.53;;;8.48;100.00
43683;BME280;29285;52.128;21.060;2023-02-17T22:52:05;99178.50;;;8.47;100.00
43683;BME280;29285;52.128;21.060;2023-02-17T22:57:06;99184.84;;;8.42;100.00
43683;BME280;29285;52.128;21.060;2023-02-17T23:02:07;99198.17;;;8.34;100.00
43683;BME280;29285;52.128;21.060;2023-02-17T23:07:08;99203.55;;;8.26;100.00
43683;BME280;29285;52.128;21.060;2023-02-17T23:12:09;99207.37;;;8.18;100.00
43683;BME280;29285;52.128;21.060;2023-02-17T23:17:11;99208.50;;;8.14;100.00
43683;BME280;29285;52.128;21.060;2023-02-17T23:22:15;99208.75;;;8.12;100.00
43683;BME280;29285;52.128;21.060;2023-02-17T23:27:16;99214.52;;;8.07;100.00
43683;BME280;29285;52.128;21.060;2023-02-17T23:32:18;99214.08;;;8.04;100.00
43683;BME280;29285;52.128;21.060;2023-02-17T23:37:19;99225.52;;;8.03;100.00
43683;BME280;29285;52.128;21.060;2023-02-17T23:42:20;99228.42;;;8.04;100.00
43683;BME280;29285;52.128;21.060;2023-02-17T23:47:21;99232.71;;;8.06;100.00
43683;BME280;29285;52.128;21.060;2023-02-17T23:52:22;99237.22;;;8.05;100.00
43683;BME280;29285;52.128;21.060;2023-02-17T23:57:23;99244.55;;;8.01;100.00
